Time;durP1;ratioP1;P1;durP2;ratioP2;P2;SDS_P1;SDS_P2;PMS_P1;PMS_P2;Temp;Humidity;BMP_temperature;BMP_pressure;BME280_temperature;BME280_humidity;BME280_pressure;Samples;Min_cycle;Max_cycle;Signal;HPM_P1;HPM_P2
2021/12/24 00:04:18;;;;;;;58.30;32.40;;;;;;;-1.17;79.56;98274.63;206814;1318;142061;-63
2021/12/24 00:09:23;;;;;;;46.70;26.60;;;;;;;-1.13;79.58;98256.86;207497;1317;140471;-64
2021/12/24 00:14:28;;;;;;;43.60;27.60;;;;;;;-1.15;79.55;98252.79;207826;1318;140113;-65
2021/12/24 00:35:33;;;;;;;50.30;30.10;;;;;;;-1.10;80.08;98212.83;208007;1318;140957;-64
2021/12/24 00:40:44;;;;;;;49.60;29.10;;;;;;;-1.16;80.05;98213.64;206715;1318;139456;-64
2021/12/24 00:45:47;;;;;;;45.90;25.50;;;;;;;-1.19;80.04;98203.58;207921;1317;139410;-63
2021/12/24 00:56:16;;;;;;;52.80;28.60;;;;;;;-1.13;79.91;98187.71;207004;1316;141071;-65
2021/12/24 01:01:19;;;;;;;47.90;24.10;;;;;;;-1.10;80.22;98188.01;207571;1318;140240;-65
2021/12/24 01:06:22;;;;;;;71.30;38.80;;;;;;;-1.10;80.21;98180.48;208475;1319;140074;-66
2021/12/24 01:11:27;;;;;;;72.60;38.30;;;;;;;-1.09;80.41;98175.85;208387;1318;140314;-64
2021/12/24 01:16:40;;;;;;;50.40;29.20;;;;;;;-1.04;80.26;98168.63;209050;1318;140954;-67
2021/12/24 01:27:06;;;;;;;44.00;22.20;;;;;;;-0.93;80.23;98147.73;207880;1316;140399;-64
2021/12/24 01:37:56;;;;;;;40.40;21.90;;;;;;;-0.95;80.47;98123.66;207898;1316;139925;-66
2021/12/24 01:43:00;;;;;;;41.10;23.20;;;;;;;-0.90;80.37;98105.90;208013;1317;141725;-64
2021/12/24 01:48:07;;;;;;;69.70;37.00;;;;;;;-0.87;80.45;98097.48;206906;1317;141836;-63
2021/12/24 01:53:11;;;;;;;59.10;32.00;;;;;;;-0.86;80.68;98099.30;207826;1317;139700;-63
2021/12/24 01:58:25;;;;;;;40.50;23.40;;;;;;;-0.88;80.79;98095.03;207412;1316;139543;-64
2021/12/24 02:03:28;;;;;;;49.40;26.80;;;;;;;-0.81;80.69;98092.86;207145;1317;139939;-63
2021/12/24 02:08:31;;;;;;;44.20;24.10;;;;;;;-0.76;80.92;98077.53;207733;1313;140213;-64
2021/12/24 02:13:34;;;;;;;42.00;25.00;;;;;;;-0.75;81.02;98070.73;208473;1317;140383;-64
2021/12/24 02:29:12;;;;;;;33.20;22.30;;;;;;;-0.63;81.13;98050.55;206688;1317;140868;-63
2021/12/24 02:34:15;;;;;;;32.80;19.40;;;;;;;-0.65;81.37;98039.32;207019;1316;140383;-62
2021/12/24 02:39:18;;;;;;;34.30;19.50;;;;;;;-0.67;81.43;98031.36;206928;1317;140591;-63
2021/12/24 02:44:24;;;;;;;31.70;19.70;;;;;;;-0.63;81.66;98027.64;207096;1316;141730;-64
2021/12/24 02:54:53;;;;;;;36.10;21.10;;;;;;;-0.50;81.90;98029.21;207214;1318;141653;-63
2021/12/24 03:00:00;;;;;;;32.20;18.50;;;;;;;-0.48;82.00;98009.11;207083;1318;140703;-63
2021/12/24 03:05:06;;;;;;;33.00;17.60;;;;;;;-0.46;82.17;97997.80;208051;1318;140550;-65
2021/12/24 03:10:14;;;;;;;35.60;20.10;;;;;;;-0.39;81.86;97995.44;207394;1318;140487;-63
2021/12/24 03:15:23;;;;;;;30.70;18.70;;;;;;;-0.30;81.93;97991.69;209196;1317;141518;-67
2021/12/24 03:20:32;;;;;;;24.80;17.10;;;;;;;-0.28;82.05;97984.26;209013;1316;139655;-66
2021/12/24 03:25:35;;;;;;;32.10;17.10;;;;;;;-0.25;82.20;97992.30;208346;1318;140388;-66
2021/12/24 03:30:39;;;;;;;30.40;16.90;;;;;;;-0.13;82.34;97985.82;209418;1319;235029;-66
2021/12/24 03:35:42;;;;;;;27.20;15.90;;;;;;;-0.03;82.33;97985.09;208763;1318;142078;-66
2021/12/24 03:40:45;;;;;;;25.70;15.20;;;;;;;0.02;82.36;97976.25;208868;1317;141047;-67
2021/12/24 03:51:06;;;;;;;23.50;15.50;;;;;;;0.12;82.17;97958.31;207040;1318;140499;-64
2021/12/24 03:56:09;;;;;;;24.00;16.90;;;;;;;0.20;82.34;97951.74;208626;1316;140005;-64
2021/12/24 04:01:12;;;;;;;22.80;15.10;;;;;;;0.24;82.57;97960.90;207775;1318;141532;-65
2021/12/24 04:06:16;;;;;;;23.00;13.70;;;;;;;0.27;82.72;97964.52;207826;1316;139680;-65
2021/12/24 04:11:19;;;;;;;25.60;16.70;;;;;;;0.32;82.09;97951.64;207955;1316;143014;-64
2021/12/24 04:16:23;;;;;;;21.80;16.00;;;;;;;0.33;82.63;97951.42;206767;1318;141106;-64
2021/12/24 04:26:50;;;;;;;26.70;15.10;;;;;;;0.32;82.71;97936.31;207220;1318;139639;-64
2021/12/24 04:32:08;;;;;;;21.00;14.40;;;;;;;0.35;82.75;97937.23;206890;1318;140908;-63
2021/12/24 04:38:02;;;;;;;22.00;12.50;;;;;;;0.32;82.66;97925.46;207917;1316;140433;-64
2021/12/24 05:04:26;;;;;;;15.40;10.00;;;;;;;0.37;82.91;97918.58;207412;1318;142703;-64
2021/12/24 05:09:31;;;;;;;25.50;16.60;;;;;;;0.37;83.04;97922.13;207814;1318;140035;-63
2021/12/24 05:14:34;;;;;;;23.70;15.50;;;;;;;0.38;82.97;97924.52;208745;1317;139456;-64
2021/12/24 05:25:00;;;;;;;23.00;15.40;;;;;;;0.45;82.83;97939.17;208743;1316;141242;-64
2021/12/24 05:30:04;;;;;;;21.10;14.10;;;;;;;0.48;82.81;97948.59;209681;1316;142159;-65
2021/12/24 05:35:08;;;;;;;12.90;8.80;;;;;;;0.49;83.26;97950.80;209027;1319;140196;-66
2021/12/24 05:40:12;;;;;;;22.40;13.20;;;;;;;0.55;82.95;97942.65;207411;1318;140004;-66
2021/12/24 05:45:15;;;;;;;20.40;15.40;;;;;;;0.60;83.03;97935.50;207053;1319;141110;-65
2021/12/24 05:50:19;;;;;;;13.40;8.90;;;;;;;0.57;82.95;97929.41;206955;1317;139738;-65
2021/12/24 05:55:22;;;;;;;23.10;13.90;;;;;;;0.57;83.15;97927.55;207783;1316;498756;-62
2021/12/24 06:00:25;;;;;;;22.80;14.90;;;;;;;0.59;82.88;97926.20;207628;1315;140335;-62
2021/12/24 06:05:28;;;;;;;21.40;14.00;;;;;;;0.60;83.44;97916.91;207372;1318;141096;-64
2021/12/24 06:10:32;;;;;;;20.00;13.40;;;;;;;0.61;83.38;97927.10;208347;1319;139801;-65
2021/12/24 06:15:42;;;;;;;19.00;12.30;;;;;;;0.60;82.99;97923.84;207726;1320;140154;-64
2021/12/24 06:20:46;;;;;;;20.90;13.80;;;;;;;0.66;83.20;97919.06;207471;1318;141788;-65
2021/12/24 06:25:51;;;;;;;17.50;12.30;;;;;;;0.68;83.02;97908.11;206986;1318;140512;-64
2021/12/24 06:30:55;;;;;;;18.90;13.10;;;;;;;0.66;83.45;97907.73;207844;1318;142343;-64
2021/12/24 06:35:59;;;;;;;20.00;12.50;;;;;;;0.63;83.13;97895.36;207237;1317;141181;-64
2021/12/24 06:41:03;;;;;;;19.00;12.10;;;;;;;0.65;83.34;97896.75;207021;1316;141010;-61
2021/12/24 06:46:11;;;;;;;21.50;13.00;;;;;;;0.64;83.26;97903.06;207058;1318;140423;-65
2021/12/24 06:51:16;;;;;;;20.40;12.30;;;;;;;0.61;83.36;97909.07;206660;1318;141764;-62
2021/12/24 06:56:23;;;;;;;28.20;16.20;;;;;;;0.64;83.28;97903.06;207694;1316;140145;-64
2021/12/24 07:01:25;;;;;;;21.60;13.40;;;;;;;0.69;83.70;97901.98;207395;1316;141860;-63
2021/12/24 07:06:29;;;;;;;15.50;12.10;;;;;;;0.69;83.50;97903.58;206843;1316;142185;-63
2021/12/24 07:11:36;;;;;;;21.70;12.90;;;;;;;0.71;83.57;97897.67;207148;1318;141707;-64
2021/12/24 07:16:39;;;;;;;19.60;13.90;;;;;;;0.76;83.08;97909.25;207826;1318;141444;-67
2021/12/24 07:21:42;;;;;;;16.40;12.30;;;;;;;0.80;83.41;97909.06;208954;1316;140977;-67
2021/12/24 07:26:46;;;;;;;22.60;14.50;;;;;;;0.81;82.86;97923.83;208101;1318;140835;-67
2021/12/24 07:31:49;;;;;;;22.60;12.50;;;;;;;0.82;82.76;97927.13;209025;1318;140298;-67
2021/12/24 07:36:52;;;;;;;20.30;12.90;;;;;;;0.86;82.84;97939.20;207199;1317;141488;-67
2021/12/24 07:41:55;;;;;;;16.10;12.70;;;;;;;0.85;83.16;97945.05;208469;1318;141343;-67
2021/12/24 07:47:01;;;;;;;24.10;13.90;;;;;;;0.84;83.09;97939.61;207540;1318;143243;-67
2021/12/24 07:52:11;;;;;;;20.60;13.90;;;;;;;0.83;83.15;97940.90;208534;1318;143371;-67
2021/12/24 07:57:15;;;;;;;22.20;15.50;;;;;;;0.88;83.21;97943.48;207742;1318;140569;-66
2021/12/24 08:02:22;;;;;;;21.90;14.50;;;;;;;0.92;83.05;97951.55;208097;1316;140241;-66
2021/12/24 08:07:27;;;;;;;24.60;14.30;;;;;;;0.93;83.45;97957.09;207470;1318;139310;-68
2021/12/24 08:12:30;;;;;;;24.60;13.70;;;;;;;0.98;83.07;97948.05;207660;1317;139544;-66
2021/12/24 08:17:34;;;;;;;27.20;15.70;;;;;;;0.94;82.81;97942.99;207319;1316;139632;-66
2021/12/24 08:22:38;;;;;;;22.30;14.90;;;;;;;0.93;83.23;97937.93;207128;1316;141508;-66
2021/12/24 08:27:41;;;;;;;26.50;14.30;;;;;;;0.95;82.90;97923.58;207309;1317;140093;-66
2021/12/24 08:32:44;;;;;;;26.50;16.60;;;;;;;1.02;82.81;97921.10;207145;1316;141065;-68
2021/12/24 08:37:49;;;;;;;26.00;16.00;;;;;;;1.08;83.09;97910.95;207213;1318;141699;-65
2021/12/24 08:42:53;;;;;;;26.30;17.40;;;;;;;1.13;83.07;97888.63;207161;1318;139834;-66
2021/12/24 08:47:56;;;;;;;31.40;21.50;;;;;;;1.16;83.23;97886.13;207751;1317;140042;-66
2021/12/24 08:52:58;;;;;;;25.40;15.40;;;;;;;1.19;82.85;97882.91;208191;1318;140087;-66
2021/12/24 08:58:02;;;;;;;26.00;16.90;;;;;;;1.24;82.64;97892.33;207989;1316;142648;-66
2021/12/24 09:03:05;;;;;;;19.80;14.80;;;;;;;1.26;82.90;97899.27;207885;1317;142084;-67
2021/12/24 09:08:08;;;;;;;25.00;14.40;;;;;;;1.25;83.10;97900.17;207549;1316;141975;-67
2021/12/24 09:13:12;;;;;;;25.10;15.70;;;;;;;1.34;82.72;97893.94;206732;1318;141112;-66
2021/12/24 09:18:16;;;;;;;20.40;14.10;;;;;;;1.43;82.73;97888.55;206739;1316;142123;-67
2021/12/24 09:23:30;;;;;;;22.00;16.10;;;;;;;1.46;82.84;97885.55;208641;1320;140149;-65
2021/12/24 09:28:51;;;;;;;23.70;12.70;;;;;;;1.51;82.46;97875.23;208496;1318;140803;-68
2021/12/24 09:33:54;;;;;;;20.20;13.40;;;;;;;1.58;82.27;97865.27;208994;1318;140480;-67
2021/12/24 09:39:01;;;;;;;19.40;13.80;;;;;;;1.73;82.58;97858.73;209111;1317;140499;-69
2021/12/24 09:44:04;;;;;;;18.70;12.30;;;;;;;1.84;82.15;97851.12;209027;1318;139911;-68
2021/12/24 09:49:09;;;;;;;20.20;12.60;;;;;;;1.90;82.12;97851.01;208710;1316;140040;-69
2021/12/24 09:54:15;;;;;;;22.00;12.30;;;;;;;1.94;81.72;97842.45;207815;1318;140259;-68
2021/12/24 09:59:19;;;;;;;18.90;13.90;;;;;;;1.94;81.96;97839.61;207519;1318;141449;-66
2021/12/24 10:04:24;;;;;;;20.20;12.10;;;;;;;2.01;82.03;97825.09;208281;1318;140448;-66
2021/12/24 10:09:43;;;;;;;20.60;12.60;;;;;;;2.02;81.73;97820.54;207721;1318;140563;-65
2021/12/24 10:14:58;;;;;;;10.50;8.70;;;;;;;2.07;81.86;97810.13;208394;1318;140969;-67
2021/12/24 10:20:10;;;;;;;21.30;12.30;;;;;;;1.99;81.58;97806.43;206750;1318;140926;-64
2021/12/24 10:25:13;;;;;;;19.80;13.00;;;;;;;2.04;81.80;97802.39;208007;1318;141792;-63
2021/12/24 10:30:21;;;;;;;18.60;12.20;;;;;;;2.14;81.78;97801.35;207096;1318;140645;-64
2021/12/24 10:35:29;;;;;;;21.10;13.10;;;;;;;2.11;81.80;97786.11;206717;1317;140869;-65
2021/12/24 10:40:34;;;;;;;19.90;12.20;;;;;;;2.10;81.78;97780.91;207205;1318;140650;-66
2021/12/24 10:45:39;;;;;;;20.70;12.30;;;;;;;2.08;81.81;97784.23;206941;1318;140757;-65
2021/12/24 10:50:49;;;;;;;15.90;11.30;;;;;;;2.03;81.57;97786.64;206981;1318;142235;-65
2021/12/24 10:55:54;;;;;;;19.00;12.70;;;;;;;1.97;81.58;97774.89;207624;1318;141341;-65
2021/12/24 11:00:59;;;;;;;20.40;8.90;;;;;;;1.93;81.99;97779.36;206881;1316;141270;-65
2021/12/24 11:06:07;;;;;;;14.10;9.30;;;;;;;1.91;81.70;97759.14;206565;1318;140919;-64
2021/12/24 11:11:18;;;;;;;14.40;9.60;;;;;;;1.93;81.96;97762.06;207640;1318;141903;-65
2021/12/24 11:16:23;;;;;;;15.00;10.00;;;;;;;1.91;82.14;97769.17;206641;1318;140940;-65
2021/12/24 11:21:29;;;;;;;15.90;8.30;;;;;;;1.88;82.00;97738.32;207563;1318;140812;-65
2021/12/24 11:26:39;;;;;;;13.30;8.20;;;;;;;1.96;81.70;97724.58;207661;1317;140590;-65
2021/12/24 11:31:44;;;;;;;14.70;9.10;;;;;;;2.09;81.99;97728.13;207156;1318;141655;-65
2021/12/24 11:36:48;;;;;;;15.80;10.30;;;;;;;2.11;81.72;97743.05;208753;1318;140969;-65
2021/12/24 11:41:51;;;;;;;11.10;7.60;;;;;;;1.99;81.81;97754.40;209544;1318;141656;-65
2021/12/24 11:46:53;;;;;;;13.20;7.30;;;;;;;1.94;81.57;97751.90;208904;1318;141265;-65
2021/12/24 11:51:56;;;;;;;13.80;8.60;;;;;;;1.88;81.52;97746.24;209447;1317;140897;-66
2021/12/24 11:56:59;;;;;;;11.90;8.10;;;;;;;1.86;81.88;97740.35;209223;1319;140020;-66
2021/12/24 12:02:02;;;;;;;15.00;9.40;;;;;;;1.86;82.20;97740.30;208155;1317;139440;-66
2021/12/24 12:07:18;;;;;;;16.70;9.10;;;;;;;1.89;82.03;97730.88;208972;1318;140672;-66
2021/12/24 12:12:32;;;;;;;14.60;9.20;;;;;;;2.00;81.81;97714.05;207825;1316;140667;-65
2021/12/24 12:17:50;;;;;;;14.30;9.80;;;;;;;2.05;82.13;97708.43;207608;1318;141251;-66
2021/12/24 12:22:57;;;;;;;16.30;9.70;;;;;;;2.12;82.15;97706.45;208152;1318;141053;-65
2021/12/24 12:28:10;;;;;;;15.70;9.30;;;;;;;2.15;82.06;97705.38;206722;1318;140356;-65
2021/12/24 12:33:24;;;;;;;13.80;10.30;;;;;;;2.20;82.08;97702.27;207963;1317;142290;-65
2021/12/24 12:38:31;;;;;;;16.40;10.50;;;;;;;2.20;82.14;97702.39;207068;1318;141564;-65
2021/12/24 12:43:37;;;;;;;16.40;11.60;;;;;;;2.17;82.41;97710.16;206747;1319;140667;-65
2021/12/24 12:48:48;;;;;;;13.90;9.30;;;;;;;2.19;82.19;97698.73;206890;1316;142344;-66
2021/12/24 12:53:51;;;;;;;14.30;10.00;;;;;;;2.25;82.50;97700.36;207070;1317;140543;-66
2021/12/24 12:59:03;;;;;;;21.50;13.00;;;;;;;2.26;82.48;97695.70;207436;1317;141432;-66
2021/12/24 13:04:06;;;;;;;16.70;10.00;;;;;;;2.24;82.58;97685.34;207176;1316;140284;-65
2021/12/24 13:09:21;;;;;;;19.00;10.60;;;;;;;2.23;82.38;97684.73;206974;1318;142410;-65
2021/12/24 13:14:28;;;;;;;19.50;11.40;;;;;;;2.26;82.42;97679.23;206866;1318;142100;-65
2021/12/24 13:25:16;;;;;;;15.30;10.40;;;;;;;2.32;82.98;97678.59;207020;1318;141018;-65
2021/12/24 13:30:27;;;;;;;14.40;9.50;;;;;;;2.35;82.76;97670.70;209022;1319;140070;-66
2021/12/24 13:35:41;;;;;;;17.50;10.90;;;;;;;2.38;82.41;97675.06;208449;1317;141407;-66
2021/12/24 13:40:44;;;;;;;25.00;13.90;;;;;;;2.43;83.05;97679.90;207172;1318;140324;-66
2021/12/24 13:45:51;;;;;;;23.60;13.00;;;;;;;2.44;82.92;97677.92;208148;1318;141303;-66
2021/12/24 13:56:01;;;;;;;23.10;14.30;;;;;;;2.55;82.94;97668.66;208042;1317;140470;-66
2021/12/24 14:01:04;;;;;;;20.30;11.70;;;;;;;2.55;83.00;97675.30;208043;1319;139755;-65
2021/12/24 14:06:08;;;;;;;24.30;14.80;;;;;;;2.53;83.10;97681.98;208606;1317;139561;-66
2021/12/24 14:11:14;;;;;;;13.50;10.40;;;;;;;2.51;83.13;97679.88;208820;1316;140928;-66
2021/12/24 14:21:45;;;;;;;19.80;11.70;;;;;;;2.55;83.40;97679.27;206942;1316;140575;-64
2021/12/24 14:26:47;;;;;;;;;;;;;;;2.52;83.47;97682.33;207987;1318;142693;-66
2021/12/24 14:31:56;;;;;;;21.50;12.50;;;;;;;2.55;83.75;97686.96;208634;1316;127791;-65
2021/12/24 14:37:12;;;;;;;15.80;9.00;;;;;;;2.55;83.60;97684.17;206388;1320;140904;-65
2021/12/24 14:42:24;;;;;;;17.10;10.10;;;;;;;2.45;83.38;97665.36;207550;1319;139711;-65
2021/12/24 14:47:29;;;;;;;14.50;11.50;;;;;;;2.46;83.95;97665.48;207509;1317;141222;-65
2021/12/24 14:52:34;;;;;;;16.10;8.70;;;;;;;2.45;84.00;97669.72;207858;1316;140452;-65
2021/12/24 14:57:51;;;;;;;15.80;9.30;;;;;;;2.39;83.78;97654.90;206695;1317;139129;-65
2021/12/24 15:02:55;;;;;;;11.10;6.20;;;;;;;2.37;83.67;97674.58;206852;1316;139863;-65
2021/12/24 15:08:00;;;;;;;15.90;8.70;;;;;;;2.32;84.05;97690.77;207778;1319;139697;-64
2021/12/24 15:13:13;;;;;;;14.70;10.20;;;;;;;2.30;84.26;97681.58;207776;1317;139278;-64
2021/12/24 15:18:18;;;;;;;13.30;7.10;;;;;;;2.32;84.12;97668.37;207211;1316;139634;-65
2021/12/24 15:23:21;;;;;;;10.30;6.30;;;;;;;2.36;84.20;97669.66;207572;1316;140222;-65
2021/12/24 15:28:24;;;;;;;11.10;6.30;;;;;;;2.37;84.03;97684.45;208106;1315;140619;-64
2021/12/24 15:33:27;;;;;;;13.00;8.00;;;;;;;2.33;84.27;97697.21;208017;1320;141382;-63
2021/12/24 15:38:30;;;;;;;8.80;5.30;;;;;;;2.34;84.00;97701.98;207843;1317;139969;-64
2021/12/24 15:43:34;;;;;;;12.60;8.10;;;;;;;2.35;83.87;97708.35;209139;1320;140657;-65
2021/12/24 15:48:37;;;;;;;15.40;9.80;;;;;;;2.32;84.18;97706.43;208136;1319;141560;-67
2021/12/24 15:53:43;;;;;;;15.90;9.00;;;;;;;2.30;83.98;97719.96;208484;1318;140318;-67
2021/12/24 15:58:46;;;;;;;13.00;8.50;;;;;;;2.32;83.90;97732.05;207368;1313;140209;-68
2021/12/24 16:03:49;;;;;;;11.20;8.10;;;;;;;2.33;83.98;97720.52;208485;1319;140389;-68
2021/12/24 16:08:52;;;;;;;13.30;8.40;;;;;;;2.35;84.29;97716.15;209028;1314;139724;-68
2021/12/24 16:13:54;;;;;;;11.60;6.50;;;;;;;2.37;83.57;97715.70;208999;1316;140871;-67
2021/12/24 16:18:57;;;;;;;11.80;6.80;;;;;;;2.35;83.55;97725.66;209267;1320;140683;-68
2021/12/24 16:24:01;;;;;;;12.30;8.60;;;;;;;2.34;83.70;97736.15;207972;1316;140405;-67
2021/12/24 16:29:05;;;;;;;15.50;7.90;;;;;;;2.25;83.42;97738.78;207208;1318;142867;-64
2021/12/24 16:34:07;;;;;;;14.00;8.80;;;;;;;2.26;83.57;97737.23;206887;1318;141316;-64
2021/12/24 16:39:11;;;;;;;15.40;8.40;;;;;;;2.22;83.39;97731.83;208407;1316;141847;-64
2021/12/24 16:44:14;;;;;;;11.70;7.40;;;;;;;2.09;83.66;97743.48;208592;1319;141028;-65
2021/12/24 16:49:16;;;;;;;11.80;8.40;;;;;;;2.01;83.67;97751.70;207041;1317;207782;-65
2021/12/24 16:54:23;;;;;;;12.90;7.60;;;;;;;1.95;83.26;97771.73;206860;1317;140490;-65
2021/12/24 16:59:27;;;;;;;11.70;6.10;;;;;;;1.82;83.02;97790.14;207549;1319;140036;-65
2021/12/24 17:04:30;;;;;;;13.70;8.30;;;;;;;1.67;83.25;97793.39;207447;1316;139116;-64
2021/12/24 17:09:33;;;;;;;11.10;7.80;;;;;;;1.63;83.22;97780.11;207073;1318;139709;-64
2021/12/24 17:14:42;;;;;;;12.70;8.50;;;;;;;1.56;83.08;97773.27;207694;1319;139308;-63
2021/12/24 17:19:47;;;;;;;13.70;7.80;;;;;;;1.47;83.32;97773.78;207304;1319;141266;-64
2021/12/24 17:24:50;;;;;;;14.20;8.60;;;;;;;1.39;83.30;97788.10;206961;1316;140098;-64
2021/12/24 17:29:53;;;;;;;11.50;6.60;;;;;;;1.29;83.12;97793.89;207448;1316;153865;-64
2021/12/24 17:34:55;;;;;;;15.40;8.50;;;;;;;1.26;83.00;97806.08;207171;1318;162564;-64
2021/12/24 17:39:58;;;;;;;13.10;9.20;;;;;;;1.24;83.47;97816.27;207007;1317;139760;-64
2021/12/24 17:45:03;;;;;;;18.10;10.00;;;;;;;1.18;83.38;97835.55;206635;1318;163913;-64
2021/12/24 17:50:10;;;;;;;16.30;8.40;;;;;;;1.10;83.13;97848.48;207454;1318;141557;-65
2021/12/24 17:55:14;;;;;;;15.80;9.70;;;;;;;1.05;83.04;97848.29;207496;1318;141950;-65
2021/12/24 18:00:20;;;;;;;14.00;9.20;;;;;;;1.00;83.66;97858.35;208467;1318;140236;-64
2021/12/24 18:05:24;;;;;;;12.80;8.60;;;;;;;0.94;83.73;97858.38;208814;1318;140663;-65
2021/12/24 18:10:27;;;;;;;11.00;7.20;;;;;;;0.91;82.99;97865.89;208740;1318;142244;-64
2021/12/24 18:15:31;;;;;;;12.60;7.60;;;;;;;0.90;82.98;97875.15;207774;1315;139782;-65
2021/12/24 18:20:35;;;;;;;12.50;7.90;;;;;;;0.89;83.29;97874.92;208560;1319;140719;-64
2021/12/24 18:25:39;;;;;;;11.60;7.00;;;;;;;0.89;83.26;97880.86;209273;1319;140006;-64
2021/12/24 18:30:50;;;;;;;9.90;7.00;;;;;;;0.89;83.39;97885.94;207278;1317;140597;-65
2021/12/24 18:35:55;;;;;;;12.60;8.60;;;;;;;0.89;83.27;97888.56;207597;1316;139916;-65
2021/12/24 18:40:57;;;;;;;9.00;5.50;;;;;;;0.89;83.60;97907.98;207652;1318;140026;-65
2021/12/24 18:46:02;;;;;;;16.60;8.50;;;;;;;0.84;83.34;97914.59;207771;1317;140439;-64
2021/12/24 18:51:05;;;;;;;14.90;9.30;;;;;;;0.84;83.31;97916.94;207929;1314;142009;-65
2021/12/24 18:56:08;;;;;;;12.40;9.80;;;;;;;0.83;83.72;97924.93;208677;1318;140050;-65
2021/12/24 19:01:11;;;;;;;15.40;9.40;;;;;;;0.83;83.53;97941.15;206970;1318;140544;-65
2021/12/24 19:06:16;;;;;;;12.00;8.40;;;;;;;0.82;83.43;97943.83;207639;1321;139698;-65
2021/12/24 19:11:22;;;;;;;15.10;10.40;;;;;;;0.80;83.43;97952.96;208303;1319;140503;-67
2021/12/24 19:16:38;;;;;;;17.10;10.50;;;;;;;0.79;83.81;97958.90;208168;1316;141246;-65
2021/12/24 19:21:44;;;;;;;11.90;9.20;;;;;;;0.72;83.73;97967.51;206684;1317;221347;-66
2021/12/24 19:26:51;;;;;;;15.20;10.70;;;;;;;0.66;83.57;97971.83;207195;1316;139904;-67
2021/12/24 19:31:57;;;;;;;12.30;8.80;;;;;;;0.67;83.76;97982.84;206950;1316;140325;-66
2021/12/24 19:37:04;;;;;;;12.40;8.80;;;;;;;0.59;84.01;97993.48;206805;1319;141313;-65
2021/12/24 19:42:10;;;;;;;12.20;9.80;;;;;;;0.54;83.81;97992.11;206956;1318;140469;-65
2021/12/24 19:47:17;;;;;;;13.90;10.90;;;;;;;0.54;83.74;98020.42;207394;1318;140438;-66
2021/12/24 19:52:26;;;;;;;17.70;10.00;;;;;;;0.56;83.91;98039.48;208065;1318;142081;-65
2021/12/24 19:57:29;;;;;;;13.70;8.30;;;;;;;0.55;83.90;98048.08;207778;1318;140154;-62
2021/12/24 20:02:40;;;;;;;21.00;12.20;;;;;;;0.57;84.03;98054.25;207358;1319;139523;-64
2021/12/24 20:07:48;;;;;;;17.80;11.20;;;;;;;0.53;83.81;98063.90;207416;1318;141303;-65
2021/12/24 20:12:54;;;;;;;19.10;11.60;;;;;;;0.50;83.56;98075.70;208197;1316;139792;-67
2021/12/24 20:17:59;;;;;;;16.80;11.60;;;;;;;0.48;83.94;98079.66;207632;1318;141237;-70
2021/12/24 20:23:03;;;;;;;19.40;11.70;;;;;;;0.47;83.72;98089.02;207340;1318;142171;-69
2021/12/24 20:28:11;;;;;;;25.10;13.90;;;;;;;0.49;83.77;98100.11;208720;1316;141127;-67
2021/12/24 20:33:13;;;;;;;20.80;13.30;;;;;;;0.49;83.97;98108.14;208509;1317;140888;-71
2021/12/24 20:38:17;;;;;;;22.60;13.10;;;;;;;0.49;83.88;98109.18;209625;1318;140845;-69
2021/12/24 20:43:21;;;;;;;42.80;20.80;;;;;;;0.49;83.36;98124.92;208839;1318;140873;-68
2021/12/24 20:48:24;;;;;;;37.30;17.90;;;;;;;0.53;83.68;98132.40;207905;1318;142289;-67
2021/12/24 20:53:40;;;;;;;49.30;28.40;;;;;;;0.54;83.71;98133.96;207678;1317;140635;-68
2021/12/24 20:58:43;;;;;;;25.40;14.00;;;;;;;0.50;83.63;98150.15;207654;1317;140855;-66
2021/12/24 21:03:52;;;;;;;25.70;14.20;;;;;;;0.50;83.70;98154.35;206970;1318;140645;-70
2021/12/24 21:08:55;;;;;;;24.20;14.90;;;;;;;0.53;83.62;98165.19;207556;1316;140215;-71
2021/12/24 21:14:01;;;;;;;24.90;15.30;;;;;;;0.52;83.76;98168.23;207887;1318;140428;-68
2021/12/24 21:19:05;;;;;;;20.10;13.10;;;;;;;0.50;84.07;98175.85;206951;1316;140791;-70
2021/12/24 21:24:08;;;;;;;19.60;11.40;;;;;;;0.50;84.15;98189.96;206901;1318;140832;-66
2021/12/24 21:29:12;;;;;;;25.60;14.80;;;;;;;0.49;84.01;98197.39;207418;1318;141921;-68
2021/12/24 21:34:21;;;;;;;19.30;13.30;;;;;;;0.48;84.22;98202.63;207799;1316;140531;-67
2021/12/24 21:39:25;;;;;;;20.80;13.20;;;;;;;0.45;83.99;98209.82;206636;1317;140453;-69
2021/12/24 21:44:28;;;;;;;22.30;13.40;;;;;;;0.48;83.69;98226.63;207582;1318;139775;-67
2021/12/24 21:49:31;;;;;;;8.20;5.20;;;;;;;0.45;83.46;98245.48;207997;1316;141592;-68
2021/12/24 21:54:35;;;;;;;4.30;3.50;;;;;;;0.35;82.85;98271.10;207730;1317;464075;-67
2021/12/24 21:59:38;;;;;;;5.10;3.70;;;;;;;0.23;82.52;98297.50;208196;1318;140557;-68
2021/12/24 22:05:08;;;;;;;6.40;4.40;;;;;;;0.03;81.81;98317.66;208452;1318;140435;-65
2021/12/24 22:10:09;;;;;;;6.90;4.90;;;;;;;-0.23;81.74;98329.37;206845;1316;140580;-64
2021/12/24 22:15:14;;;;;;;7.80;6.30;;;;;;;-0.45;81.71;98351.21;208756;1316;140444;-67
2021/12/24 22:20:17;;;;;;;4.30;3.80;;;;;;;-0.60;81.52;98358.42;208370;1317;140479;-67
2021/12/24 22:25:19;;;;;;;2.40;2.30;;;;;;;-0.74;81.47;98378.90;209208;1318;140115;-67
2021/12/24 22:30:25;;;;;;;7.40;4.90;;;;;;;-0.90;81.33;98391.19;208678;1318;141388;-69
2021/12/24 22:35:31;;;;;;;4.30;2.00;;;;;;;-1.01;81.16;98401.56;209439;1319;140830;-69
2021/12/24 22:40:35;;;;;;;2.30;1.90;;;;;;;-1.10;80.87;98407.02;209082;1318;140707;-66
2021/12/24 22:45:42;;;;;;;3.40;2.60;;;;;;;-1.20;80.89;98424.66;208665;1316;140164;-67
2021/12/24 22:50:46;;;;;;;;;;;;;;;-1.30;80.66;98438.99;207138;1318;234317;-66
2021/12/24 22:55:49;;;;;;;3.90;3.20;;;;;;;-1.42;80.66;98455.79;208587;1318;127270;-67
2021/12/24 23:00:58;;;;;;;3.80;2.30;;;;;;;-1.54;80.60;98474.39;207121;1318;141829;-67
2021/12/24 23:06:02;;;;;;;2.20;1.90;;;;;;;-1.69;80.29;98495.20;206976;1316;141402;-67
2021/12/24 23:11:05;;;;;;;2.60;2.20;;;;;;;-1.76;80.21;98500.52;207532;1318;141015;-68
2021/12/24 23:16:20;;;;;;;2.90;2.10;;;;;;;-1.88;80.05;98505.02;206725;1316;139861;-68
2021/12/24 23:21:29;;;;;;;2.20;2.00;;;;;;;-1.99;80.13;98509.28;207083;1316;140399;-66
2021/12/24 23:26:32;;;;;;;2.60;2.20;;;;;;;-2.04;80.11;98519.34;208508;1318;141334;-69
2021/12/24 23:31:34;;;;;;;5.60;3.80;;;;;;;-2.04;80.44;98529.75;207250;1318;222084;-67
2021/12/24 23:36:36;;;;;;;2.30;1.80;;;;;;;-2.03;80.41;98532.97;207175;1318;140541;-66
2021/12/24 23:41:40;;;;;;;3.80;2.00;;;;;;;-2.04;80.46;98544.49;208074;1317;141814;-67
2021/12/24 23:52:15;;;;;;;4.70;1.90;;;;;;;-2.03;80.16;98567.44;206975;1318;140503;-65
2021/12/24 23:57:17;;;;;;;4.00;1.50;;;;;;;-2.12;79.57;98593.16;207551;1318;141128;-65
